createdAt,value
2016-05-15T00:00:17.216Z,58.29
2016-05-15T00:01:17.202Z,58.2
2016-05-15T00:02:17.033Z,58.1
2016-05-15T00:03:17.176Z,58.2
2016-05-15T00:04:17.180Z,58.48
2016-05-15T00:05:17.167Z,58.58
2016-05-15T00:06:17.154Z,58.39
2016-05-15T00:07:17.157Z,58.58
2016-05-15T00:08:17.143Z,58.48
2016-05-15T00:09:17.129Z,58.86
2016-05-15T00:10:17.132Z,58.86
2016-05-15T00:11:17.121Z,58.76
2016-05-15T00:12:17.123Z,58.58
2016-05-15T00:13:17.126Z,58.39
2016-05-15T00:14:17.097Z,58.58
2016-05-15T00:15:17.100Z,59.14
2016-05-15T00:16:18.306Z,59.43
2016-05-15T00:17:17.089Z,59.14
2016-05-15T00:18:17.076Z,59.33
2016-05-15T00:19:17.079Z,59.43
2016-05-15T00:20:17.066Z,59.33
2016-05-15T00:22:17.040Z,59.24
2016-05-15T00:23:17.042Z,58.95
2016-05-15T00:24:17.031Z,59.24
2016-05-15T00:25:17.533Z,59.52
2016-05-15T00:26:17.036Z,59.43
2016-05-15T00:27:18.319Z,59.91
2016-05-15T00:28:17.056Z,59.81
2016-05-15T00:29:17.012Z,59.81
2016-05-15T00:30:17.890Z,60.1
2016-05-15T00:31:17.283Z,60
2016-05-15T00:32:16.989Z,60.76
2016-05-15T00:33:17.164Z,60.38
2016-05-15T00:34:17.026Z,60.57
2016-05-15T00:35:16.794Z,60.66
2016-05-15T00:36:16.796Z,60.57
2016-05-15T00:37:16.784Z,60.38
2016-05-15T00:38:16.927Z,60.38
2016-05-15T00:39:16.914Z,60.47
2016-05-15T00:40:16.917Z,60.57
2016-05-15T00:41:16.904Z,60.47
2016-05-15T00:42:16.750Z,60.57
2016-05-15T00:43:16.893Z,60.57
2016-05-15T00:44:16.896Z,60.57
2016-05-15T00:45:16.884Z,61.23
2016-05-15T00:46:16.870Z,61.23
2016-05-15T00:47:16.857Z,60.95
2016-05-15T00:48:16.860Z,61.04
2016-05-15T00:49:17.081Z,61.04
2016-05-15T00:50:16.851Z,61.33
2016-05-15T00:51:16.837Z,61.14
2016-05-15T00:52:16.825Z,61.14
2016-05-15T00:53:16.827Z,61.33
2016-05-15T00:54:16.658Z,61.33
2016-05-15T00:55:16.800Z,61.33
2016-05-15T00:56:16.803Z,61.23
2016-05-15T00:57:16.791Z,61.42
2016-05-15T00:58:16.637Z,61.23
2016-05-15T00:59:16.780Z,61.04
2016-05-15T01:00:16.783Z,61.23
2016-05-15T01:01:16.770Z,61.14
2016-05-15T01:02:16.757Z,60.95
2016-05-15T01:03:42.685Z,61.04
2016-05-15T01:04:16.591Z,61.17
2016-05-15T01:05:16.750Z,60.76
2016-05-15T01:06:16.752Z,60.79
2016-05-15T01:07:16.724Z,61.07
2016-05-15T01:08:16.727Z,61.07
2016-05-15T01:09:16.713Z,61.07
2016-05-15T01:10:16.701Z,61.26
2016-05-15T01:11:16.704Z,60.31
2016-05-15T01:12:16.691Z,60.5
2016-05-15T01:13:16.677Z,60.6
2016-05-15T01:14:16.524Z,60.31
2016-05-15T01:15:16.667Z,60.5
2016-05-15T01:16:16.670Z,60.41
2016-05-15T01:17:16.657Z,60.31
2016-05-15T01:18:16.659Z,60.31
2016-05-15T01:19:16.615Z,60.03
2016-05-15T01:20:16.650Z,60.13
2016-05-15T01:21:16.636Z,60.79
2016-05-15T01:22:16.624Z,60.5
2016-05-15T01:23:16.626Z,60.41
2016-05-15T01:24:16.614Z,60.5
2016-05-15T01:25:16.616Z,60.6
2016-05-15T01:26:16.603Z,60.6
2016-05-15T01:27:16.590Z,60.5
2016-05-15T01:28:16.577Z,60.69
2016-05-15T01:29:16.580Z,60.22
2016-05-15T01:30:16.411Z,60.13
2016-05-15T01:31:16.413Z,59.93
2016-05-15T01:32:16.400Z,60.03
2016-05-15T01:33:16.575Z,59.74
2016-05-15T01:34:18.250Z,59.93
2016-05-15T01:35:16.549Z,59.93
2016-05-15T01:36:16.536Z,59.84
2016-05-15T01:37:16.524Z,59.49
2016-05-15T01:38:16.651Z,59.84
2016-05-15T01:39:17.044Z,59.87
2016-05-15T01:41:16.612Z,59.68
2016-05-15T01:42:17.193Z,59.87
2016-05-15T01:43:18.507Z,59.68
2016-05-15T01:44:17.760Z,59.68
2016-05-15T01:45:16.529Z,59.87
2016-05-15T01:46:17.047Z,59.87
2016-05-15T01:47:16.940Z,59.49
2016-05-15T01:48:16.756Z,59.58
2016-05-15T01:50:16.434Z,59.49
2016-05-15T01:51:17.139Z,59.39
2016-05-15T01:52:17.126Z,59.2
2016-05-15T01:53:16.722Z,59.39
2016-05-15T01:54:16.413Z,59.49
2016-05-15T01:55:16.415Z,59.2
2016-05-15T01:56:16.403Z,59.2
2016-05-15T01:57:16.389Z,59.58
2016-05-15T01:58:16.392Z,59.49
2016-05-15T01:59:16.380Z,59.77
2016-05-15T02:00:16.366Z,59.87
2016-05-15T02:01:16.369Z,60.06
2016-05-15T02:02:16.356Z,60.44
2016-05-15T02:03:16.359Z,60.44
2016-05-15T02:04:16.346Z,60.44
2016-05-15T02:05:16.192Z,61.29
2016-05-15T02:06:16.351Z,61.1
2016-05-15T02:07:16.322Z,61.29
2016-05-15T02:08:16.325Z,61.48
2016-05-15T02:09:16.312Z,61.77
2016-05-15T02:10:16.316Z,62.34
2016-05-15T02:11:16.302Z,62.34
2016-05-15T02:12:16.305Z,62.34
2016-05-15T02:13:16.307Z,62.34
2016-05-15T02:14:16.139Z,62.53
2016-05-15T02:15:16.282Z,63.01
2016-05-15T02:16:16.284Z,63.2
2016-05-15T02:17:16.272Z,62.62
2016-05-15T02:18:16.259Z,62.72
2016-05-15T02:19:16.433Z,63.1
2016-05-15T02:20:16.249Z,62.46
2016-05-15T02:21:16.251Z,62.46
2016-05-15T02:22:16.238Z,62.15
2016-05-15T02:23:16.225Z,62.18
2016-05-15T02:24:16.228Z,62.24
2016-05-15T02:25:16.215Z,62.65
2016-05-15T02:26:16.202Z,61.96
2016-05-15T02:27:16.205Z,62.43
2016-05-15T02:28:16.192Z,61.61
2016-05-15T02:29:16.054Z,61.77
2016-05-15T02:30:16.181Z,61.77
2016-05-15T02:31:16.028Z,61.68
2016-05-15T02:32:16.171Z,61.68
2016-05-15T02:33:16.175Z,61.52
2016-05-15T02:34:16.161Z,61.58
2016-05-15T02:35:16.147Z,61.58
2016-05-15T02:36:16.150Z,61.58
2016-05-15T02:37:16.153Z,61.42
2016-05-15T02:38:16.141Z,61.71
2016-05-15T02:39:16.127Z,61.48
2016-05-15T02:40:16.115Z,61.48
2016-05-15T02:41:16.118Z,61.32
2016-05-15T02:42:16.120Z,61.23
2016-05-15T02:43:16.107Z,61.23
2016-05-15T02:44:16.094Z,61.04
2016-05-15T02:45:16.097Z,60.85
2016-05-15T02:46:16.084Z,60.94
2016-05-15T02:47:16.087Z,61.23
2016-05-15T02:48:16.073Z,61.04
2016-05-15T02:49:16.076Z,61.04
2016-05-15T02:50:16.063Z,61.04
2016-05-15T02:51:15.894Z,61.32
2016-05-15T02:52:16.835Z,61.23
2016-05-15T02:53:16.337Z,61.32
2016-05-15T02:54:16.370Z,61.32
2016-05-15T02:55:16.030Z,60.85
2016-05-15T02:56:16.970Z,61.42
2016-05-15T02:57:16.020Z,61.04
2016-05-15T02:58:15.850Z,61.23
2016-05-15T02:59:16.307Z,61.42
2016-05-15T03:00:15.997Z,61.13
2016-05-15T03:01:16.936Z,61.13
2016-05-15T03:02:16.720Z,61.23
2016-05-15T03:03:15.989Z,61.32
2016-05-15T03:04:16.350Z,61.32
2016-05-15T03:05:16.057Z,61.61
2016-05-15T03:06:15.966Z,61.71
2016-05-15T03:07:16.406Z,61.42
2016-05-15T03:08:16.361Z,61.71
2016-05-15T03:10:30.963Z,61.71
2016-05-15T03:11:16.541Z,61.99
2016-05-15T03:12:15.935Z,62.37
2016-05-15T03:13:15.969Z,62.18
2016-05-15T03:14:15.925Z,61.71
2016-05-15T03:15:15.912Z,61.42
2016-05-15T03:16:15.899Z,62.37
2016-05-15T03:17:15.730Z,61.99
2016-05-15T03:18:15.888Z,62.65
2016-05-15T03:19:15.735Z,62.37
2016-05-15T03:20:15.878Z,61.99
2016-05-15T03:21:15.882Z,62.27
2016-05-15T03:22:15.868Z,62.65
2016-05-15T03:23:15.714Z,62.65
2016-05-15T03:24:15.859Z,63.04
2016-05-15T03:25:15.861Z,63.04
2016-05-15T03:26:15.847Z,62.85
2016-05-15T03:27:15.835Z,62.94
2016-05-15T03:28:15.822Z,63.04
2016-05-15T03:29:15.825Z,62.94
2016-05-15T03:30:15.827Z,63.42
2016-05-15T03:31:15.814Z,63.32
2016-05-15T03:32:15.817Z,63.42
2016-05-15T03:33:15.803Z,63.51
2016-05-15T03:34:15.791Z,63.42
2016-05-15T03:35:15.638Z,64.08
2016-05-15T03:36:15.797Z,63.99
2016-05-15T03:37:15.783Z,64.18
2016-05-15T03:38:15.771Z,64.27
2016-05-15T03:39:15.774Z,64.84
2016-05-15T03:40:15.760Z,64.56
2016-05-15T03:41:15.747Z,64.37
2016-05-15T03:42:15.750Z,65.22
2016-05-15T03:43:15.738Z,65.13
2016-05-15T03:44:15.740Z,65.57
2016-05-15T03:45:15.726Z,65.76
2016-05-15T03:46:15.730Z,65.57
2016-05-15T03:47:15.716Z,66.33
2016-05-15T03:48:15.718Z,66.24
2016-05-15T03:49:15.707Z,66.42
2016-05-15T03:50:15.694Z,66.61
2016-05-15T03:51:15.696Z,66.61
2016-05-15T03:52:15.683Z,66.61
2016-05-15T03:53:15.687Z,66.8
2016-05-15T03:54:15.673Z,66.61
2016-05-15T03:55:15.675Z,67.28
2016-05-15T03:56:15.663Z,66.8
2016-05-15T03:57:15.665Z,67.19
2016-05-15T03:58:15.653Z,66.8
2016-05-15T03:59:15.639Z,67
2016-05-15T04:00:15.642Z,67.28
2016-05-15T04:01:15.629Z,67.57
2016-05-15T04:02:15.631Z,67.47
2016-05-15T04:03:15.619Z,67.28
2016-05-15T04:04:15.622Z,67.28
2016-05-15T04:05:15.609Z,67.38
2016-05-15T04:06:15.596Z,67.85
2016-05-15T04:07:15.442Z,67.38
2016-05-15T04:08:15.430Z,67.76
2016-05-15T04:09:15.588Z,67.94
2016-05-15T04:10:15.575Z,68.42
2016-05-15T04:11:16.828Z,68.61
2016-05-15T04:12:16.956Z,68.52
2016-05-15T04:13:16.021Z,68.71
2016-05-15T04:14:15.554Z,68.42
2016-05-15T04:15:15.542Z,68.42
2016-05-15T04:16:15.544Z,68.13
2016-05-15T04:17:15.843Z,68.42
2016-05-15T04:18:15.535Z,68.42
2016-05-15T04:19:30.009Z,68.52
2016-05-15T04:21:17.355Z,68.52
2016-05-15T04:22:15.593Z,67.85
2016-05-15T04:23:15.501Z,68.13
2016-05-15T04:24:15.503Z,68.33
2016-05-15T04:25:15.476Z,68.33
2016-05-15T04:26:15.821Z,67.85
2016-05-15T04:27:15.481Z,68.61
2016-05-15T04:28:15.483Z,68.61
2016-05-15T04:29:15.470Z,68.23
2016-05-15T04:30:15.801Z,68.52
2016-05-15T04:32:15.447Z,67.85
2016-05-15T04:33:15.794Z,68.17
2016-05-15T04:34:15.437Z,67.88
2016-05-15T04:35:15.424Z,67.5
2016-05-15T04:36:15.411Z,67.6
2016-05-15T04:37:15.258Z,67.88
2016-05-15T04:38:15.400Z,67.5
2016-05-15T04:39:15.403Z,67.69
2016-05-15T04:40:15.406Z,67.5
2016-05-15T04:41:15.393Z,67.5
2016-05-15T04:42:15.396Z,67.41
2016-05-15T04:43:15.383Z,67.03
2016-05-15T04:44:15.369Z,67.5
2016-05-15T04:45:15.372Z,66.74
2016-05-15T04:46:15.359Z,67.32
2016-05-15T04:47:15.347Z,67.03
2016-05-15T04:48:15.349Z,67.22
2016-05-15T04:49:15.196Z,67.03
2016-05-15T04:50:15.340Z,66.74
2016-05-15T04:51:15.326Z,66.3
2016-05-15T04:52:15.329Z,66.49
2016-05-15T04:53:15.316Z,66.74
2016-05-15T04:54:15.318Z,66.78
2016-05-15T04:55:15.306Z,66.78
2016-05-15T04:56:15.324Z,66.68
2016-05-15T04:57:15.296Z,66.68
2016-05-15T04:58:15.142Z,66.39
2016-05-15T04:59:15.301Z,66.11
2016-05-15T05:00:15.287Z,66.2
2016-05-15T05:01:15.275Z,66.3
2016-05-15T05:02:15.293Z,66.39
2016-05-15T05:03:15.264Z,65.92
2016-05-15T05:04:15.268Z,65.54
2016-05-15T05:05:15.255Z,65.64
2016-05-15T05:06:15.241Z,65.25
2016-05-15T05:07:15.245Z,65.38
2016-05-15T05:08:15.231Z,65.1
2016-05-15T05:09:15.233Z,64.97
2016-05-15T05:10:15.237Z,65.38
2016-05-15T05:11:15.224Z,64.9
2016-05-15T05:12:15.211Z,64.53
2016-05-15T05:13:15.213Z,64.81
2016-05-15T05:14:15.216Z,64.9
2016-05-15T05:15:15.203Z,64.81
2016-05-15T05:16:15.034Z,64.81
2016-05-15T05:17:15.193Z,64.81
2016-05-15T05:18:15.180Z,64.81
2016-05-15T05:19:15.589Z,64.72
2016-05-15T05:20:15.170Z,64.43
2016-05-15T05:21:15.016Z,64.24
2016-05-15T05:22:15.176Z,63.96
2016-05-15T05:23:15.162Z,63.76
2016-05-15T05:24:15.165Z,63.86
2016-05-15T05:25:15.151Z,63.86
2016-05-15T05:26:15.155Z,63.86
2016-05-15T05:27:15.142Z,63.86
2016-05-15T05:28:15.144Z,64.9
2016-05-15T05:29:15.976Z,65.1
2016-05-15T05:30:15.118Z,66.24
2016-05-15T05:31:15.120Z,66.81
2016-05-15T05:32:15.530Z,67.86
2016-05-15T05:33:15.721Z,67.95
2016-05-15T05:34:15.348Z,69.48
2016-05-15T05:35:15.100Z,70.05
2016-05-15T05:36:15.073Z,69.76
2016-05-15T05:37:16.044Z,70.9
2016-05-15T05:38:15.093Z,71.19
2016-05-15T05:39:15.080Z,71.25
2016-05-15T05:40:15.817Z,72.24
2016-05-15T05:41:15.320Z,71.72
2016-05-15T05:42:15.322Z,72.3
2016-05-15T05:43:15.310Z,72.39
2016-05-15T05:44:15.063Z,72.58
2016-05-15T05:45:15.049Z,73.06
2016-05-15T05:46:15.052Z,73.1
2016-05-15T05:47:16.039Z,73.38
2016-05-15T05:48:15.339Z,73.34
2016-05-15T05:49:15.341Z,73.47
2016-05-15T05:50:15.719Z,73.57
2016-05-15T05:51:15.019Z,73.66
2016-05-15T05:52:15.021Z,73.38
2016-05-15T05:53:15.040Z,73.1
2016-05-15T05:54:15.012Z,73.19
2016-05-15T05:55:14.998Z,73.47
2016-05-15T05:56:15.001Z,73.95
2016-05-15T05:57:14.988Z,74.04
2016-05-15T05:58:14.990Z,73.99
2016-05-15T05:59:14.978Z,73.41
2016-05-15T06:00:14.980Z,73.41
2016-05-15T06:01:14.968Z,73.7
2016-05-15T06:02:14.970Z,73.13
2016-05-15T06:03:14.973Z,72.65
2016-05-15T06:04:15.195Z,72.46
2016-05-15T06:05:14.947Z,72.37
2016-05-15T06:06:14.950Z,72.65
2016-05-15T06:07:14.953Z,72.69
2016-05-15T06:08:14.955Z,71.93
2016-05-15T06:09:14.942Z,71.58
2016-05-15T06:10:14.944Z,71.14
2016-05-15T06:11:14.933Z,69.9
2016-05-15T06:12:14.935Z,68.6
2016-05-15T06:13:14.922Z,67.77
2016-05-15T06:14:14.924Z,67.4
2016-05-15T06:15:14.927Z,65.58
2016-05-15T06:16:14.930Z,64.85
2016-05-15T06:17:14.916Z,64.18
2016-05-15T06:18:14.920Z,63.73
2016-05-15T06:19:15.204Z,62.68
2016-05-15T06:20:14.924Z,61.54
2016-05-15T06:21:14.913Z,61.63
2016-05-15T06:22:14.915Z,61.54
2016-05-15T06:23:14.745Z,61.47
2016-05-15T06:24:14.920Z,60.9
2016-05-15T06:25:14.923Z,60.33
2016-05-15T06:26:14.926Z,59.84
2016-05-15T06:27:14.912Z,58.89
2016-05-15T06:28:14.915Z,58.41
2016-05-15T06:29:14.762Z,57.84
2016-05-15T06:30:14.748Z,58.03
2016-05-15T06:31:14.907Z,58
2016-05-15T06:32:14.910Z,58.1
2016-05-15T06:33:14.913Z,58.1
2016-05-15T06:34:15.509Z,58.1
2016-05-15T06:35:14.918Z,57.9
2016-05-15T06:36:14.750Z,57.81
2016-05-15T06:37:14.892Z,57.62
2016-05-15T06:38:14.895Z,57.71
2016-05-15T06:39:14.741Z,57.33
2016-05-15T06:40:14.901Z,56.95
2016-05-15T06:41:14.888Z,56.45
2016-05-15T06:42:14.890Z,56.45
2016-05-15T06:43:14.894Z,56.73
2016-05-15T06:44:14.896Z,56.45
2016-05-15T06:45:14.899Z,56.23
2016-05-15T06:46:14.885Z,56.63
2016-05-15T06:47:14.889Z,56.35
2016-05-15T06:48:15.672Z,56.06
2016-05-15T06:49:16.299Z,55.58
2016-05-15T06:50:14.725Z,55.32
2016-05-15T06:51:14.930Z,55.04
2016-05-15T06:52:14.729Z,54.68
2016-05-15T06:53:14.888Z,54.21
2016-05-15T06:54:14.876Z,53.85
2016-05-15T06:55:14.879Z,52.73
2016-05-15T06:56:14.928Z,51.97
2016-05-15T06:57:14.884Z,51.87
2016-05-15T06:59:15.904Z,51.48
2016-05-15T07:00:15.048Z,51.2
2016-05-15T07:01:15.895Z,50.24
2016-05-15T07:02:14.882Z,49.86
2016-05-15T07:03:14.884Z,49.48
2016-05-15T07:05:16.046Z,48.9
2016-05-15T07:06:14.876Z,48.73
2016-05-15T07:07:15.238Z,48.25
2016-05-15T07:08:15.023Z,47.97
2016-05-15T07:09:14.884Z,47.58
2016-05-15T07:10:14.887Z,47.39
2016-05-15T07:11:14.889Z,46.36
2016-05-15T07:12:14.893Z,46.26
2016-05-15T07:13:14.880Z,46
2016-05-15T07:14:14.882Z,45.04
2016-05-15T07:15:14.886Z,45.04
2016-05-15T07:16:14.888Z,44.85
2016-05-15T07:17:14.891Z,44.66
2016-05-15T07:18:14.894Z,44.59
2016-05-15T07:19:14.896Z,44.11
2016-05-15T07:20:14.899Z,43.99
2016-05-15T07:21:14.901Z,43.99
2016-05-15T07:22:14.904Z,43.9
2016-05-15T07:23:14.907Z,43.9
2016-05-15T07:24:14.910Z,43.9
2016-05-15T07:25:14.912Z,43.9
2016-05-15T07:26:14.899Z,43.77
2016-05-15T07:27:14.918Z,44.06
2016-05-15T07:28:14.904Z,43.77
2016-05-15T07:29:14.907Z,43.77
2016-05-15T07:30:14.910Z,43.77
2016-05-15T07:31:14.913Z,43.3
2016-05-15T07:32:14.915Z,42.63
2016-05-15T07:33:14.918Z,41.6
2016-05-15T07:34:14.921Z,40.84
2016-05-15T07:35:14.923Z,41.04
2016-05-15T07:36:14.925Z,40.58
2016-05-15T07:37:14.929Z,39.93
2016-05-15T07:38:14.931Z,38.62
2016-05-15T07:39:14.954Z,37.77
2016-05-15T07:40:15.016Z,37.12
2016-05-15T07:41:15.063Z,37.14
2016-05-15T07:42:15.108Z,35.79
2016-05-15T07:43:15.154Z,35.42
2016-05-15T07:44:15.203Z,35.24
2016-05-15T07:45:15.221Z,34.84
2016-05-15T07:46:15.240Z,34.37
2016-05-15T07:47:15.258Z,34.67
2016-05-15T07:48:15.292Z,34.29
2016-05-15T07:49:15.306Z,34
2016-05-15T07:50:15.330Z,32.95
2016-05-15T07:51:15.338Z,32.97
2016-05-15T07:52:15.346Z,32.59
2016-05-15T07:53:23.839Z,31.62
2016-05-15T07:54:15.376Z,31.24
2016-05-15T07:55:15.318Z,30.94
2016-05-15T07:56:15.385Z,30.37
2016-05-15T07:57:15.405Z,30.26
2016-05-15T07:58:15.410Z,30.55
2016-05-15T07:59:15.414Z,29.87
2016-05-15T08:00:15.434Z,29.29
2016-05-15T08:01:15.437Z,28.91
2016-05-15T08:02:15.283Z,29.29
2016-05-15T08:03:15.459Z,29.58
2016-05-15T08:04:16.040Z,29.39
2016-05-15T08:05:15.481Z,29.21
2016-05-15T08:06:15.328Z,28.92
2016-05-15T08:07:16.535Z,29.03
2016-05-15T08:08:15.506Z,28.37
2016-05-15T08:09:15.524Z,27.98
2016-05-15T08:10:15.528Z,27.89
2016-05-15T08:11:15.546Z,27.7
2016-05-15T08:12:15.563Z,27.78
2016-05-15T08:13:15.551Z,27.11
2016-05-15T08:16:15.809Z,27.85
2016-05-15T08:18:16.674Z,28.31
2016-05-15T08:19:15.457Z,28.41
2016-05-15T08:20:15.867Z,29.07
2016-05-15T08:21:15.620Z,28.61
2016-05-15T08:22:15.638Z,28.31
2016-05-15T08:24:15.643Z,28.51
2016-05-15T08:25:15.662Z,28.42
2016-05-15T08:26:15.508Z,27.75
2016-05-15T08:27:15.667Z,27.75
2016-05-15T08:28:15.669Z,27.27
2016-05-15T08:29:15.704Z,27.17
2016-05-15T08:30:15.534Z,26.78
2016-05-15T08:31:15.708Z,26.68
2016-05-15T08:32:15.711Z,26.39
2016-05-15T08:33:15.714Z,26.86
2016-05-15T08:34:15.733Z,27.24
2016-05-15T08:35:15.969Z,26.47
2016-05-15T08:36:15.739Z,26.76
2016-05-15T08:37:15.756Z,26.28
2016-05-15T08:38:15.774Z,26.57
2016-05-15T08:39:15.762Z,26.57
2016-05-15T08:40:15.780Z,26.17
2016-05-15T08:41:15.782Z,26.27
2016-05-15T08:42:15.785Z,26.27
2016-05-15T08:43:15.788Z,26.36
2016-05-15T08:44:15.807Z,26.54
2016-05-15T08:45:15.809Z,26.06
2016-05-15T08:46:15.812Z,26.73
2016-05-15T08:47:15.815Z,26.53
2016-05-15T08:48:15.832Z,27.49
2016-05-15T08:49:15.679Z,27.48
2016-05-15T08:50:15.838Z,28.23
2016-05-15T08:51:15.841Z,28.33
2016-05-15T08:52:15.859Z,28.23
2016-05-15T08:53:15.862Z,28.72
2016-05-15T08:54:15.864Z,28.33
2016-05-15T08:55:15.867Z,28.23
2016-05-15T08:56:15.870Z,28.61
2016-05-15T08:57:15.888Z,28.81
2016-05-15T08:58:15.875Z,29.02
2016-05-15T08:59:15.893Z,28.81
2016-05-15T09:00:15.896Z,28.63
2016-05-15T09:01:15.898Z,28.91
2016-05-15T09:02:15.901Z,28.81
2016-05-15T09:03:15.904Z,28.81
2016-05-15T09:04:15.922Z,28.71
2016-05-15T09:05:15.926Z,29.28
2016-05-15T09:06:15.756Z,28.89
2016-05-15T09:07:15.774Z,29.17
2016-05-15T09:08:15.917Z,29.56
2016-05-15T09:09:15.919Z,29.85
2016-05-15T09:10:15.922Z,29.37
2016-05-15T09:11:15.926Z,29.75
2016-05-15T09:12:15.928Z,29.75
2016-05-15T09:13:15.930Z,29.66
2016-05-15T09:14:15.934Z,29.37
2016-05-15T09:15:15.936Z,29.27
2016-05-15T09:16:15.954Z,29.28
2016-05-15T09:17:15.801Z,29.1
2016-05-15T09:18:15.945Z,29.28
2016-05-15T09:19:16.072Z,29.1
2016-05-15T09:20:16.293Z,28.71
2016-05-15T09:21:15.968Z,29.19
2016-05-15T09:22:15.954Z,29.1
2016-05-15T09:23:15.958Z,29.38
2016-05-15T09:24:15.960Z,29.28
2016-05-15T09:25:15.963Z,29.28
2016-05-15T09:26:15.966Z,28.71
2016-05-15T09:27:16.281Z,28.91
2016-05-15T09:28:15.971Z,28.72
2016-05-15T09:29:15.974Z,28.82
2016-05-15T09:30:15.976Z,28.82
2016-05-15T09:31:15.995Z,28.72
2016-05-15T09:32:15.982Z,28.34
2016-05-15T09:33:15.984Z,28.71
2016-05-15T09:34:16.878Z,28.71
2016-05-15T09:35:16.569Z,29
2016-05-15T09:36:17.305Z,29.75
2016-05-15T09:37:15.995Z,30.04
2016-05-15T09:38:15.998Z,30.51
2016-05-15T09:39:16.033Z,30.99
2016-05-15T09:40:16.738Z,32.12
2016-05-15T09:41:16.022Z,32.6
2016-05-15T09:42:16.541Z,33.17
2016-05-15T09:43:16.777Z,33.08
2016-05-15T09:44:16.577Z,33.83
2016-05-15T09:45:16.032Z,34.31
2016-05-15T09:46:16.724Z,34.58
2016-05-15T09:47:16.429Z,35.06
2016-05-15T09:48:16.025Z,35.25
2016-05-15T09:49:15.887Z,35.9
2016-05-15T09:50:16.390Z,36.19
2016-05-15T09:51:16.033Z,36.96
2016-05-15T09:52:16.036Z,37.32
2016-05-15T09:53:16.038Z,37.61
2016-05-15T09:54:16.026Z,38.54
2016-05-15T09:55:16.028Z,39.58
2016-05-15T09:56:16.031Z,40.72
2016-05-15T09:57:16.034Z,42.33
2016-05-15T09:58:16.036Z,44.6
2016-05-15T09:59:16.024Z,46.32
2016-05-15T10:00:16.042Z,47.44
2016-05-15T10:01:16.029Z,48.59
2016-05-15T10:02:16.031Z,49.71
2016-05-15T10:03:16.019Z,49.99
2016-05-15T10:04:16.537Z,50.09
2016-05-15T10:05:16.024Z,50.67
2016-05-15T10:06:16.027Z,50.85
2016-05-15T10:07:16.030Z,50.85
2016-05-15T10:08:16.017Z,50.95
2016-05-15T10:09:16.019Z,51.33
2016-05-15T10:10:16.021Z,51.23
2016-05-15T10:11:16.008Z,50.88
2016-05-15T10:12:16.012Z,50.49
2016-05-15T10:13:16.014Z,50.31
2016-05-15T10:14:16.016Z,50.12
2016-05-15T10:15:16.005Z,49.95
2016-05-15T10:16:16.022Z,49.76
2016-05-15T10:17:16.010Z,49.38
2016-05-15T10:18:16.012Z,48.93
2016-05-15T10:19:16.250Z,48.16
2016-05-15T10:20:16.018Z,47.71
2016-05-15T10:21:16.005Z,47.42
2016-05-15T10:22:16.007Z,47.25
2016-05-15T10:23:15.993Z,46.96
2016-05-15T10:24:15.997Z,46.48
2016-05-15T10:25:15.999Z,46.41
2016-05-15T10:26:16.002Z,46.12
2016-05-15T10:27:16.004Z,45.38
2016-05-15T10:28:16.039Z,45.09
2016-05-15T10:29:16.010Z,44.81
2016-05-15T10:30:15.998Z,44.62
2016-05-15T10:31:16.015Z,44.52
2016-05-15T10:32:16.003Z,44.43
2016-05-15T10:33:16.037Z,45
2016-05-15T10:34:16.009Z,45.48
2016-05-15T10:35:16.011Z,46.25
2016-05-15T10:36:15.997Z,46.25
2016-05-15T10:37:16.001Z,46.91
2016-05-15T10:38:15.989Z,46.61
2016-05-15T10:39:16.006Z,46.51
2016-05-15T10:40:15.993Z,46.61
2016-05-15T10:41:15.997Z,46.98
2016-05-15T10:42:15.999Z,46.96
2016-05-15T10:43:16.002Z,46.39
2016-05-15T10:44:15.988Z,46.41
2016-05-15T10:45:16.007Z,46.41
2016-05-15T10:46:17.650Z,45.36
2016-05-15T10:47:16.559Z,45.07
2016-05-15T10:48:17.077Z,44.9
2016-05-15T10:49:16.018Z,44.43
2016-05-15T10:50:16.410Z,44.04
2016-05-15T10:51:15.992Z,43.85
2016-05-15T10:52:17.151Z,43.56
2016-05-15T10:53:16.059Z,43.1
2016-05-15T10:55:16.236Z,41.67
2016-05-15T10:56:16.568Z,41.67
2016-05-15T10:57:15.992Z,41.55
2016-05-15T10:58:17.167Z,40.78
2016-05-15T10:59:15.997Z,41.24
2016-05-15T11:00:16.016Z,42.08
2016-05-15T11:01:16.518Z,42.64
2016-05-15T11:02:15.990Z,43.59
2016-05-15T11:03:15.992Z,44.43
2016-05-15T11:04:16.074Z,46.06
2016-05-15T11:05:15.997Z,47.78
2016-05-15T11:06:15.985Z,49.47
2016-05-15T11:07:15.987Z,51
2016-05-15T11:08:15.990Z,51.95
2016-05-15T11:09:15.992Z,53.2
2016-05-15T11:10:15.996Z,54.15
2016-05-15T11:11:15.983Z,55.2
2016-05-15T11:12:15.986Z,55.01
2016-05-15T11:13:15.988Z,55.11
2016-05-15T11:14:15.991Z,54.91
2016-05-15T11:15:15.837Z,55.3
2016-05-15T11:16:15.997Z,55.77
2016-05-15T11:17:15.983Z,55.77
2016-05-15T11:18:15.986Z,55.49
2016-05-15T11:19:16.223Z,55.4
2016-05-15T11:20:15.944Z,55.4
2016-05-15T11:21:15.979Z,55.49
2016-05-15T11:22:15.981Z,55.58
2016-05-15T11:23:15.984Z,56.35
2016-05-15T11:24:15.987Z,56.06
2016-05-15T11:25:15.989Z,55.68
2016-05-15T11:26:15.976Z,55.68
2016-05-15T11:27:15.979Z,55.65
2016-05-15T11:28:15.981Z,55.46
2016-05-15T11:29:15.828Z,54.99
2016-05-15T11:30:15.987Z,53.93
2016-05-15T11:31:15.974Z,53.93
2016-05-15T11:32:15.976Z,54.13
2016-05-15T11:33:15.979Z,54.79
2016-05-15T11:34:15.967Z,55.08
2016-05-15T11:35:15.813Z,54.99
2016-05-15T11:36:15.972Z,54.99
2016-05-15T11:37:15.990Z,54.6
2016-05-15T11:38:15.977Z,53.65
2016-05-15T11:39:15.980Z,52.69
2016-05-15T11:40:15.967Z,52.69
2016-05-15T11:41:15.970Z,52.88
2016-05-15T11:42:15.956Z,51.83
2016-05-15T11:43:16.069Z,51.74
2016-05-15T11:44:15.961Z,51.67
2016-05-15T11:45:15.950Z,51.45
2016-05-15T11:46:15.952Z,51.29
2016-05-15T11:47:15.955Z,50.9
2016-05-15T11:48:15.957Z,50.14
2016-05-15T11:49:16.257Z,49.38
2016-05-15T11:50:15.993Z,49.66
2016-05-15T11:51:15.950Z,49.85
2016-05-15T11:52:15.937Z,49.95
2016-05-15T11:53:15.940Z,49.38
2016-05-15T11:54:16.145Z,48.8
2016-05-15T11:55:15.945Z,48.99
2016-05-15T11:56:16.040Z,48.23
2016-05-15T11:57:15.935Z,47.87
2016-05-15T11:58:15.938Z,47.87
2016-05-15T11:59:15.940Z,47.3
2016-05-15T12:00:15.926Z,47.03
2016-05-15T12:01:15.929Z,46.56
2016-05-15T12:02:15.932Z,45.91
2016-05-15T12:03:16.701Z,45.15
2016-05-15T12:05:17.315Z,43.63
2016-05-15T12:06:16.943Z,42.97
2016-05-15T12:07:15.930Z,42.68
2016-05-15T12:08:16.573Z,42.01
2016-05-15T12:09:15.936Z,41.24
2016-05-15T12:10:15.939Z,41.15
2016-05-15T12:11:30.644Z,40.67
2016-05-15T12:14:18.200Z,40.5
2016-05-15T12:15:17.342Z,40.59
2016-05-15T12:16:16.173Z,39.92
2016-05-15T12:17:16.785Z,39.64
2016-05-15T12:18:16.210Z,39.45
2016-05-15T12:19:15.946Z,38.96
2016-05-15T12:20:15.918Z,38.87
2016-05-15T12:21:30.344Z,38.87
2016-05-15T12:22:15.924Z,39.81
2016-05-15T12:23:15.911Z,40.19
2016-05-15T12:24:15.913Z,40.12
2016-05-15T12:25:15.916Z,39.83
2016-05-15T12:26:15.918Z,39.16
2016-05-15T12:27:15.922Z,39.06
2016-05-15T12:28:15.909Z,38.7
2016-05-15T12:29:15.912Z,38.6
2016-05-15T12:30:15.914Z,37.93
2016-05-15T12:31:15.917Z,37.84
2016-05-15T12:32:15.763Z,37.65
2016-05-15T12:33:15.923Z,37.45
2016-05-15T12:34:15.925Z,36.98
2016-05-15T12:35:16.209Z,36.98
2016-05-15T12:36:15.914Z,36.59
2016-05-15T12:37:15.917Z,35.44
2016-05-15T12:38:15.936Z,36
2016-05-15T12:39:15.923Z,35.61
2016-05-15T12:40:15.754Z,36.57
2016-05-15T12:41:15.912Z,36.75
2016-05-15T12:42:15.915Z,36.94
2016-05-15T12:43:15.917Z,37.32
2016-05-15T12:44:15.748Z,37.23
2016-05-15T12:45:15.766Z,37.32
2016-05-15T12:46:15.911Z,37.51
2016-05-15T12:47:15.913Z,37.41
2016-05-15T12:48:15.916Z,37.13
2016-05-15T12:49:15.919Z,37.32
2016-05-15T12:50:15.921Z,37.13
2016-05-15T12:51:15.924Z,37.32
2016-05-15T12:52:15.754Z,36.94
2016-05-15T12:53:15.913Z,37.59
2016-05-15T12:54:15.916Z,37.3
2016-05-15T12:55:15.919Z,36.82
2016-05-15T12:56:15.937Z,36.54
2016-05-15T12:57:15.908Z,36.54
2016-05-15T12:58:15.755Z,36.92
2016-05-15T12:59:15.914Z,36.15
2016-05-15T13:00:15.760Z,35.68
2016-05-15T13:01:15.763Z,35.77
2016-05-15T13:02:15.906Z,35.68
2016-05-15T13:03:15.753Z,35.57
2016-05-15T13:04:15.895Z,35.37
2016-05-15T13:05:15.930Z,35.85
2016-05-15T13:06:15.917Z,35.18
2016-05-15T13:07:15.920Z,35.66
2016-05-15T13:08:15.906Z,35.75
2016-05-15T13:09:15.894Z,35.75
2016-05-15T13:10:15.911Z,36.23
2016-05-15T13:11:15.899Z,36.23
2016-05-15T13:12:15.903Z,36.23